createdAt,value
2022-08-05T00:00:56.500Z,4.20
2022-08-05T00:03:50.955Z,3.47
2022-08-05T00:06:27.862Z,4.28
2022-08-05T00:08:58.316Z,4.05
2022-08-05T00:11:34.808Z,3.80
2022-08-05T00:14:17.238Z,4.28
2022-08-05T00:16:52.908Z,4.03
2022-08-05T00:19:33.241Z,4.75
2022-08-05T00:22:04.307Z,4.47
2022-08-05T00:24:38.508Z,4.90
2022-08-05T00:27:21.438Z,4.50
2022-08-05T00:29:57.955Z,4.57
2022-08-05T00:32:29.287Z,4.50
2022-08-05T00:35:06.059Z,4.45
2022-08-05T00:37:53.085Z,4.15
2022-08-05T00:40:32.107Z,4.15
2022-08-05T00:43:02.748Z,3.67
2022-08-05T00:45:43.040Z,3.30
2022-08-05T00:50:47.091Z,3.83
2022-08-05T00:53:45.330Z,3.58
2022-08-05T00:56:07.855Z,3.70
2022-08-05T00:58:37.877Z,3.85
2022-08-05T01:01:08.851Z,3.75
2022-08-05T01:03:40.021Z,3.65
2022-08-05T01:06:14.128Z,3.37
2022-08-05T01:08:47.313Z,4.00
2022-08-05T01:11:37.239Z,4.60
2022-08-05T01:14:32.208Z,5.68
2022-08-05T01:17:11.693Z,5.22
2022-08-05T01:20:01.940Z,4.60
2022-08-05T01:22:35.081Z,5.28
2022-08-05T01:25:19.945Z,4.78
2022-08-05T01:27:55.403Z,4.68
2022-08-05T01:30:34.017Z,5.03
2022-08-05T01:33:09.333Z,5.47
2022-08-05T01:35:53.173Z,5.90
2022-08-05T01:38:26.905Z,5.30
2022-08-05T01:41:01.652Z,4.75
2022-08-05T01:43:38.011Z,5.75
2022-08-05T01:46:42.849Z,5.63
2022-08-05T01:49:23.996Z,5.80
2022-08-05T01:52:02.826Z,4.47
2022-08-05T01:58:10.722Z,4.38
2022-08-05T02:00:30.007Z,3.90
2022-08-05T02:03:16.316Z,4.22
2022-08-05T02:05:59.644Z,4.32
2022-08-05T02:08:31.638Z,3.58
2022-08-05T02:11:13.998Z,4.20
2022-08-05T02:14:17.041Z,4.15
2022-08-05T02:16:55.858Z,3.67
2022-08-05T02:19:28.675Z,3.70
2022-08-05T02:22:25.741Z,3.80
2022-08-05T02:25:14.834Z,3.95
2022-08-05T02:27:59.303Z,3.72
2022-08-05T02:30:34.642Z,3.83
2022-08-05T02:33:06.711Z,3.55
2022-08-05T02:35:56.290Z,3.50
2022-08-05T02:38:35.100Z,3.58
2022-08-05T02:41:17.772Z,3.53
2022-08-05T02:44:02.337Z,3.40
2022-08-05T02:46:53.484Z,4.35
2022-08-05T02:49:35.644Z,3.58
2022-08-05T02:52:29.609Z,4.22
2022-08-05T02:55:12.285Z,4.85
2022-08-05T02:58:20.087Z,4.22
2022-08-05T03:00:35.739Z,3.72
2022-08-05T03:03:07.728Z,3.70
2022-08-05T03:06:55.283Z,3.33
2022-08-05T03:08:30.941Z,3.58
2022-08-05T03:11:00.930Z,3.40
2022-08-05T03:13:52.187Z,3.30
2022-08-05T03:16:37.725Z,3.40
2022-08-05T03:19:12.964Z,3.38
2022-08-05T03:21:55.386Z,3.10
2022-08-05T03:24:29.419Z,2.65
2022-08-05T03:27:00.041Z,2.97
2022-08-05T03:29:44.670Z,2.90
2022-08-05T03:32:19.811Z,3.30
2022-08-05T03:35:00.096Z,2.70
2022-08-05T03:37:31.584Z,2.83
2022-08-05T03:40:14.123Z,3.00
2022-08-05T03:42:52.473Z,2.60
2022-08-05T03:45:26.593Z,2.63
2022-08-05T03:47:59.362Z,2.80
2022-08-05T03:50:42.308Z,2.90
2022-08-05T03:56:41.261Z,2.67
2022-08-05T03:59:22.164Z,2.60
2022-08-05T04:01:58.927Z,3.20
2022-08-05T04:04:30.166Z,2.95
2022-08-05T04:07:00.780Z,2.60
2022-08-05T04:09:36.664Z,2.60
2022-08-05T04:12:06.020Z,3.03
2022-08-05T04:15:03.291Z,2.80
2022-08-05T04:17:55.566Z,2.88
2022-08-05T04:20:24.934Z,2.80
2022-08-05T04:22:55.557Z,2.67
2022-08-05T04:25:56.577Z,2.35
2022-08-05T04:28:14.936Z,2.40
2022-08-05T04:30:43.798Z,2.63
2022-08-05T04:34:17.483Z,2.95
2022-08-05T04:36:44.809Z,2.80
2022-08-05T04:39:01.707Z,2.60
2022-08-05T04:41:37.691Z,2.58
2022-08-05T04:44:08.981Z,2.95
2022-08-05T04:46:39.542Z,2.85
2022-08-05T04:49:12.444Z,2.53
2022-08-05T04:51:44.555Z,2.83
2022-08-05T04:54:15.096Z,2.60
2022-08-05T04:56:44.061Z,2.20
2022-08-05T04:59:22.166Z,2.60
2022-08-05T05:02:07.733Z,2.15
2022-08-05T05:04:52.322Z,2.83
2022-08-05T05:07:24.065Z,2.80
2022-08-05T05:09:58.516Z,4.07
2022-08-05T05:12:27.833Z,2.72
2022-08-05T05:14:57.264Z,2.55
2022-08-05T05:17:56.899Z,2.45
2022-08-05T05:20:15.516Z,2.38
2022-08-05T05:22:49.193Z,3.00
2022-08-05T05:25:17.980Z,2.50
2022-08-05T05:27:53.780Z,2.50
2022-08-05T05:30:35.066Z,2.27
2022-08-05T05:33:16.909Z,2.00
2022-08-05T05:35:47.748Z,2.30
2022-08-05T05:38:22.547Z,1.92
2022-08-05T05:40:57.446Z,1.90
2022-08-05T05:43:56.844Z,2.30
2022-08-05T05:46:18.797Z,2.13
2022-08-05T05:48:48.925Z,2.25
2022-08-05T05:51:27.740Z,2.20
2022-08-05T05:54:01.486Z,2.17
2022-08-05T05:56:36.942Z,2.10
2022-08-05T05:59:07.681Z,2.00
2022-08-05T06:01:40.345Z,2.03
2022-08-05T06:04:12.765Z,2.03
2022-08-05T06:06:46.413Z,2.10
2022-08-05T06:09:26.650Z,2.17
2022-08-05T06:12:06.382Z,1.80
2022-08-05T06:14:40.236Z,1.90
2022-08-05T06:17:24.396Z,2.00
2022-08-05T06:19:59.708Z,2.03
2022-08-05T06:22:40.541Z,1.85
2022-08-05T06:25:59.078Z,2.00
2022-08-05T06:28:12.288Z,1.90
2022-08-05T06:30:51.682Z,2.30
2022-08-05T06:33:33.403Z,2.10
2022-08-05T06:36:10.125Z,2.00
2022-08-05T06:38:39.101Z,1.95
2022-08-05T06:41:15.976Z,2.05
2022-08-05T06:44:00.235Z,2.20
2022-08-05T06:46:35.571Z,2.10
2022-08-05T06:49:05.778Z,2.30
2022-08-05T06:51:47.560Z,2.20
2022-08-05T06:54:18.117Z,2.38
2022-08-05T06:58:03.960Z,2.35
2022-08-05T06:59:55.223Z,2.55
2022-08-05T07:02:32.344Z,2.30
2022-08-05T07:05:04.119Z,2.60
2022-08-05T07:07:45.465Z,2.30
2022-08-05T07:10:21.523Z,2.10
2022-08-05T07:13:56.887Z,1.90
2022-08-05T07:17:58.679Z,2.20
2022-08-05T07:19:38.947Z,1.92
2022-08-05T07:22:11.321Z,2.35
2022-08-05T07:24:54.890Z,2.25
2022-08-05T07:27:57.063Z,2.10
2022-08-05T07:30:22.945Z,1.95
2022-08-05T07:32:59.361Z,2.15
2022-08-05T07:36:03.386Z,1.90
2022-08-05T07:38:34.293Z,1.90
2022-08-05T07:42:07.698Z,1.80
2022-08-05T07:44:14.449Z,2.45
2022-08-05T07:46:50.136Z,1.75
2022-08-05T07:49:24.392Z,2.28
2022-08-05T07:52:03.519Z,2.00
2022-08-05T07:54:33.595Z,2.15
2022-08-05T07:57:16.927Z,1.90
2022-08-05T08:00:00.885Z,1.90
2022-08-05T08:03:14.756Z,2.03
2022-08-05T08:05:24.530Z,2.10
2022-08-05T08:07:59.882Z,1.90
2022-08-05T08:10:30.308Z,1.92
2022-08-05T08:13:04.951Z,2.07
2022-08-05T08:16:33.330Z,2.05
2022-08-05T08:18:28.646Z,2.08
2022-08-05T08:21:09.859Z,1.92
2022-08-05T08:24:03.356Z,1.80
2022-08-05T08:26:33.426Z,1.80
2022-08-05T08:29:29.319Z,2.03
2022-08-05T08:31:51.539Z,2.00
2022-08-05T08:34:30.899Z,1.90
2022-08-05T08:37:05.307Z,2.00
2022-08-05T08:39:37.119Z,2.20
2022-08-05T08:42:33.891Z,2.00
2022-08-05T08:45:22.491Z,2.20
2022-08-05T08:48:11.768Z,1.92
2022-08-05T08:51:07.448Z,2.25
2022-08-05T08:53:45.128Z,2.03
2022-08-05T08:56:14.308Z,1.70
2022-08-05T08:58:47.513Z,2.20
2022-08-05T09:01:18.928Z,2.10
2022-08-05T09:03:54.506Z,2.30
2022-08-05T09:06:30.872Z,2.08
2022-08-05T09:09:01.792Z,2.30
2022-08-05T09:11:52.552Z,1.94
2022-08-05T09:14:56.575Z,2.25
2022-08-05T09:17:40.018Z,2.10
2022-08-05T09:20:04.873Z,2.08
2022-08-05T09:23:09.088Z,1.80
2022-08-05T09:26:01.504Z,1.80
2022-08-05T09:28:41.435Z,1.70
2022-08-05T09:31:22.808Z,1.80
2022-08-05T09:34:03.065Z,2.50
2022-08-05T09:36:45.810Z,1.80
2022-08-05T09:39:39.332Z,1.90
2022-08-05T09:42:23.659Z,2.35
2022-08-05T09:45:17.230Z,2.17
2022-08-05T09:47:56.521Z,2.38
2022-08-05T09:50:44.458Z,2.38
2022-08-05T09:53:26.004Z,2.50
2022-08-05T09:56:31.459Z,2.35
2022-08-05T09:59:11.236Z,2.30
2022-08-05T10:01:47.783Z,2.30
2022-08-05T10:04:17.534Z,2.10
2022-08-05T10:06:59.413Z,1.90
2022-08-05T10:09:30.335Z,2.30
2022-08-05T10:12:18.698Z,2.27
2022-08-05T10:15:20.221Z,2.10
2022-08-05T10:18:10.213Z,2.00
2022-08-05T10:20:50.372Z,2.33
2022-08-05T10:23:34.743Z,2.03
2022-08-05T10:26:14.513Z,2.03
2022-08-05T10:28:46.362Z,1.63
2022-08-05T10:32:54.908Z,1.90
2022-08-05T10:34:17.165Z,2.13
2022-08-05T10:36:56.250Z,2.10
2022-08-05T10:40:03.084Z,2.08
2022-08-05T10:42:33.781Z,2.50
2022-08-05T10:45:21.220Z,2.65
2022-08-05T10:51:22.164Z,1.90
2022-08-05T10:53:51.701Z,2.10
2022-08-05T10:56:30.025Z,1.80
2022-08-05T10:59:12.798Z,1.80
2022-08-05T11:02:14.236Z,1.80
2022-08-05T11:05:05.245Z,1.90
2022-08-05T11:08:01.240Z,1.85
2022-08-05T11:10:27.168Z,2.20
2022-08-05T11:13:01.306Z,3.29
2022-08-05T11:16:00.156Z,2.00
2022-08-05T11:18:32.556Z,2.20
2022-08-05T11:21:49.001Z,1.70
2022-08-05T11:24:30.660Z,2.25
2022-08-05T11:27:50.794Z,2.30
2022-08-05T11:30:25.911Z,2.90
2022-08-05T11:33:46.206Z,1.95
2022-08-05T11:36:34.501Z,1.90
2022-08-05T11:39:09.042Z,1.50
2022-08-05T11:42:00.655Z,1.80
2022-08-05T11:44:53.464Z,1.38
2022-08-05T11:47:49.933Z,2.05
2022-08-05T11:50:14.458Z,1.80
2022-08-05T11:52:44.146Z,1.85
2022-08-05T11:55:15.972Z,2.00
2022-08-05T11:58:09.840Z,1.70
2022-08-05T12:00:38.472Z,1.65
2022-08-05T12:03:23.982Z,2.22
2022-08-05T12:06:11.092Z,2.42
2022-08-05T12:08:50.889Z,2.30
2022-08-05T12:11:39.841Z,2.35
2022-08-05T12:14:20.332Z,2.12
2022-08-05T12:16:53.363Z,2.35
2022-08-05T12:20:25.422Z,3.28
2022-08-05T12:22:20.117Z,8.10
2022-08-05T12:24:59.687Z,9.48
2022-08-05T12:27:33.373Z,7.38
2022-08-05T12:30:07.221Z,3.65
2022-08-05T12:32:54.048Z,2.60
2022-08-05T12:35:39.526Z,5.03
2022-08-05T12:38:10.260Z,5.22
2022-08-05T12:40:44.124Z,5.65
2022-08-05T12:43:20.649Z,1.90
2022-08-05T12:45:55.013Z,4.60
2022-08-05T12:48:40.274Z,3.97
2022-08-05T12:54:03.722Z,3.25
2022-08-05T12:56:35.340Z,2.75
2022-08-05T12:59:20.740Z,2.97
2022-08-05T13:02:07.103Z,3.55
2022-08-05T13:04:54.402Z,2.80
2022-08-05T13:07:56.113Z,4.63
2022-08-05T13:10:19.845Z,4.05
2022-08-05T13:12:58.055Z,4.30
2022-08-05T13:15:36.101Z,5.00
2022-08-05T13:18:10.921Z,5.68
2022-08-05T13:20:49.187Z,5.65
2022-08-05T13:23:22.683Z,9.20
2022-08-05T13:25:58.849Z,10.80
2022-08-05T13:28:29.310Z,9.80
2022-08-05T13:31:03.289Z,8.90
2022-08-05T13:34:22.452Z,10.00
2022-08-05T13:36:31.847Z,4.22
2022-08-05T13:39:02.684Z,4.30
2022-08-05T13:41:51.442Z,4.93
2022-08-05T13:44:20.356Z,4.45
2022-08-05T13:47:04.759Z,4.88
2022-08-05T13:49:37.774Z,1.75
2022-08-05T13:52:18.316Z,2.13
2022-08-05T13:54:53.767Z,1.90
2022-08-05T13:57:23.053Z,2.20
2022-08-05T13:59:59.404Z,2.20
2022-08-05T14:02:38.825Z,2.03
2022-08-05T14:05:15.149Z,2.50
2022-08-05T14:08:00.952Z,3.17
2022-08-05T14:10:37.428Z,2.60
2022-08-05T14:13:10.391Z,2.15
2022-08-05T14:16:05.955Z,2.53
2022-08-05T14:18:43.806Z,2.47
2022-08-05T14:22:07.182Z,3.25
2022-08-05T14:24:01.962Z,4.28
2022-08-05T14:26:38.765Z,4.00
2022-08-05T14:29:16.989Z,3.63
2022-08-05T14:32:03.618Z,3.30
2022-08-05T14:34:45.458Z,3.63
2022-08-05T14:37:15.527Z,3.80
2022-08-05T14:39:49.923Z,4.60
2022-08-05T14:42:25.814Z,3.60
2022-08-05T14:44:59.787Z,3.50
2022-08-05T14:48:05.537Z,3.40
2022-08-05T14:50:19.264Z,3.15
2022-08-05T14:52:57.549Z,3.28
2022-08-05T14:55:39.314Z,3.45
2022-08-05T14:58:11.031Z,4.10
2022-08-05T15:00:58.035Z,3.92
2022-08-05T15:03:39.226Z,3.35
2022-08-05T15:06:14.997Z,3.01
2022-08-05T15:08:59.214Z,3.17
2022-08-05T15:11:51.525Z,3.60
2022-08-05T15:14:35.637Z,3.50
2022-08-05T15:17:44.405Z,3.80
2022-08-05T15:19:59.356Z,3.05
2022-08-05T15:22:28.727Z,3.50
2022-08-05T15:24:59.517Z,3.70
2022-08-05T15:27:32.290Z,2.83
2022-08-05T15:30:05.849Z,3.20
2022-08-05T15:32:34.910Z,3.65
2022-08-05T15:35:10.041Z,3.63
2022-08-05T15:41:00.921Z,4.07
2022-08-05T15:43:20.436Z,4.50
2022-08-05T15:48:30.375Z,4.40
2022-08-05T15:51:03.321Z,4.82
2022-08-05T15:53:38.582Z,4.90
2022-08-05T15:56:22.806Z,4.82
2022-08-05T15:58:52.500Z,5.18
2022-08-05T16:01:29.836Z,5.15
2022-08-05T16:04:10.301Z,5.03
2022-08-05T16:06:44.798Z,4.79
2022-08-05T16:09:15.071Z,3.70
2022-08-05T16:11:43.945Z,4.10
2022-08-05T16:14:17.311Z,4.93
2022-08-05T16:16:48.894Z,5.85
2022-08-05T16:19:25.720Z,6.30
2022-08-05T16:22:10.520Z,5.80
2022-08-05T16:24:52.013Z,4.47
2022-08-05T16:27:47.110Z,4.60
2022-08-05T16:30:25.900Z,6.00
2022-08-05T16:32:55.641Z,5.75
2022-08-05T16:35:27.764Z,4.10
2022-08-05T16:38:02.977Z,3.80
2022-08-05T16:40:52.098Z,4.20
2022-08-05T16:43:32.141Z,4.15
2022-08-05T16:46:13.057Z,4.25
2022-08-05T16:48:52.258Z,3.97
2022-08-05T16:51:21.697Z,4.18
2022-08-05T16:54:03.089Z,4.65
2022-08-05T16:56:36.395Z,4.30
2022-08-05T16:59:08.168Z,6.63
2022-08-05T17:01:54.154Z,6.40
2022-08-05T17:04:27.328Z,6.70
2022-08-05T17:07:11.528Z,6.20
2022-08-05T17:09:58.210Z,7.80
2022-08-05T17:12:51.802Z,7.55
2022-08-05T17:15:19.284Z,7.78
2022-08-05T17:17:55.236Z,7.87
2022-08-05T17:20:34.448Z,8.75
2022-08-05T17:24:04.568Z,10.57
2022-08-05T17:26:12.691Z,10.43
2022-08-05T17:28:43.709Z,11.40
2022-08-05T17:31:24.113Z,12.50
2022-08-05T17:34:05.271Z,11.93
2022-08-05T17:36:40.084Z,13.82
2022-08-05T17:39:24.401Z,12.47
2022-08-05T17:42:17.541Z,13.13
2022-08-05T17:44:52.334Z,14.32
2022-08-05T17:47:23.726Z,13.10
2022-08-05T17:50:03.602Z,13.35
2022-08-05T17:52:53.081Z,14.93
2022-08-05T17:55:34.534Z,14.52
2022-08-05T17:58:13.352Z,14.13
2022-08-05T18:00:47.612Z,15.27
2022-08-05T18:03:58.695Z,13.70
2022-08-05T18:06:17.927Z,14.88
2022-08-05T18:08:58.207Z,15.57
2022-08-05T18:11:33.245Z,14.07
2022-08-05T18:14:06.796Z,14.43
2022-08-05T18:16:51.016Z,15.45
2022-08-05T18:19:23.234Z,16.17
2022-08-05T18:22:08.349Z,17.95
2022-08-05T18:24:40.485Z,18.30
2022-08-05T18:27:19.795Z,19.05
2022-08-05T18:29:59.510Z,18.42
2022-08-05T18:32:35.554Z,19.50
2022-08-05T18:35:08.312Z,19.70
2022-08-05T18:37:50.945Z,19.10
2022-08-05T18:40:33.679Z,19.95
2022-08-05T18:43:16.303Z,20.15
2022-08-05T18:45:45.807Z,22.50
2022-08-05T18:48:30.688Z,20.80
2022-08-05T18:54:18.953Z,22.23
2022-08-05T18:56:50.803Z,22.05
2022-08-05T18:59:43.652Z,23.47
2022-08-05T19:02:11.341Z,23.50
2022-08-05T19:06:06.253Z,23.30
2022-08-05T19:07:58.189Z,21.25
2022-08-05T19:10:28.391Z,19.70
2022-08-05T19:12:58.231Z,19.40
2022-08-05T19:15:59.959Z,19.75
2022-08-05T19:18:22.248Z,19.35
2022-08-05T19:21:01.953Z,19.75
2022-08-05T19:24:05.239Z,19.10
2022-08-05T19:26:30.800Z,19.02
2022-08-05T19:29:07.051Z,18.63
2022-08-05T19:31:44.975Z,17.02
2022-08-05T19:34:20.060Z,18.83
2022-08-05T19:36:51.487Z,19.80
2022-08-05T19:39:20.564Z,20.03
2022-08-05T19:42:05.913Z,21.15
2022-08-05T19:44:45.259Z,22.65
2022-08-05T19:47:16.289Z,26.95
2022-08-05T19:49:46.310Z,24.00
2022-08-05T19:52:31.790Z,19.90
2022-08-05T19:55:08.843Z,18.92
2022-08-05T19:58:19.425Z,19.85
2022-08-05T20:00:39.937Z,20.15
2022-08-05T20:06:15.631Z,21.25
2022-08-05T20:09:00.871Z,22.00
2022-08-05T20:11:48.055Z,23.23
2022-08-05T20:14:23.522Z,21.88
2022-08-05T20:16:58.848Z,22.75
2022-08-05T20:19:36.006Z,23.77
2022-08-05T20:22:05.371Z,23.38
2022-08-05T20:24:38.313Z,22.83
2022-08-05T20:27:11.434Z,21.08
2022-08-05T20:29:40.753Z,19.20
2022-08-05T20:32:10.227Z,15.60
2022-08-05T20:34:39.336Z,17.48
2022-08-05T20:38:04.482Z,21.13
2022-08-05T20:39:59.289Z,20.95
2022-08-05T20:42:38.849Z,19.42
2022-08-05T20:45:18.223Z,20.25
2022-08-05T20:47:55.319Z,19.92
2022-08-05T20:50:34.335Z,16.63
2022-08-05T20:53:16.113Z,17.13
2022-08-05T20:56:12.135Z,18.85
2022-08-05T20:58:41.129Z,20.40
2022-08-05T21:01:10.053Z,18.15
2022-08-05T21:03:48.159Z,20.63
2022-08-05T21:06:27.966Z,16.65
2022-08-05T21:08:57.772Z,20.10
2022-08-05T21:12:06.612Z,21.02
2022-08-05T21:14:18.134Z,21.38
2022-08-05T21:16:47.770Z,22.70
2022-08-05T21:19:24.481Z,20.25
2022-08-05T21:22:02.877Z,21.02
2022-08-05T21:24:32.468Z,20.67
2022-08-05T21:27:02.721Z,18.90
2022-08-05T21:29:32.598Z,19.00
2022-08-05T21:32:10.016Z,20.27
2022-08-05T21:35:08.237Z,16.63
2022-08-05T21:37:47.431Z,16.23
2022-08-05T21:40:32.495Z,14.13
2022-08-05T21:43:05.728Z,13.32
2022-08-05T21:45:51.425Z,15.55
2022-08-05T21:48:26.875Z,15.40
2022-08-05T21:50:57.302Z,15.64
2022-08-05T21:53:27.224Z,17.35
2022-08-05T21:56:09.516Z,17.58
2022-08-05T21:58:56.860Z,20.38
2022-08-05T22:01:26.974Z,20.73
2022-08-05T22:03:56.218Z,21.13
2022-08-05T22:06:34.709Z,21.17
2022-08-05T22:09:13.805Z,23.15
2022-08-05T22:11:46.990Z,24.98
2022-08-05T22:14:35.627Z,25.00
2022-08-05T22:17:12.476Z,22.98
2022-08-05T22:20:00.697Z,15.27
2022-08-05T22:23:00.720Z,15.25
2022-08-05T22:28:36.839Z,15.57
2022-08-05T22:31:07.680Z,20.25
2022-08-05T22:33:55.406Z,17.00
2022-08-05T22:36:25.750Z,22.08
2022-08-05T22:39:09.094Z,22.77
2022-08-05T22:42:10.590Z,22.25
2022-08-05T22:44:29.367Z,24.13
2022-08-05T22:47:08.398Z,19.80
2022-08-05T22:50:21.634Z,20.63
2022-08-05T22:52:32.561Z,23.98
2022-08-05T22:55:19.432Z,20.38
2022-08-05T22:57:55.239Z,22.65
2022-08-05T23:00:29.586Z,16.92
2022-08-05T23:03:00.334Z,19.03
2022-08-05T23:05:36.162Z,19.17
2022-08-05T23:08:05.543Z,18.45
2022-08-05T23:10:34.340Z,17.40
2022-08-05T23:13:03.731Z,16.20
2022-08-05T23:15:35.389Z,14.05
2022-08-05T23:18:06.169Z,14.25
2022-08-05T23:20:43.094Z,11.60
2022-08-05T23:23:12.272Z,13.02
2022-08-05T23:25:52.620Z,13.48
2022-08-05T23:28:30.887Z,15.80
2022-08-05T23:31:17.554Z,14.20
2022-08-05T23:34:04.124Z,13.13
2022-08-05T23:36:45.035Z,13.52
2022-08-05T23:39:44.417Z,11.25
2022-08-05T23:42:14.589Z,10.02
2022-08-05T23:44:43.617Z,10.82
2022-08-05T23:47:17.488Z,10.38
2022-08-05T23:49:46.623Z,9.52
2022-08-05T23:52:28.374Z,9.65
2022-08-05T23:54:59.331Z,8.13
2022-08-05T23:57:35.901Z,9.88
